Time;durP1;ratioP1;P1;durP2;ratioP2;P2;SDS_P1;SDS_P2;PMS_P1;PMS_P2;Temp;Humidity;BMP_temperature;BMP_pressure;BME280_temperature;BME280_humidity;BME280_pressure;Samples;Min_cycle;Max_cycle;Signal;HPM_P1;HPM_P2
2021/03/02 00:02:08;;;;;;;0.50;0.50;;;7.90;99.90;;;;;;5014046;28;20180;-83
2021/03/02 00:04:33;;;;;;;0.50;0.50;;;7.80;99.90;;;;;;5013726;28;20294;-83
2021/03/02 00:06:59;;;;;;;0.27;0.27;;;7.90;99.90;;;;;;5013940;28;20748;-85
2021/03/02 00:09:26;;;;;;;0.80;0.80;;;7.80;99.90;;;;;;5012775;28;20215;-83
2021/03/02 00:11:52;;;;;;;1.00;0.73;;;7.70;99.90;;;;;;5011978;28;20270;-86
2021/03/02 00:14:19;;;;;;;0.00;0.00;;;7.70;99.90;;;;;;5011568;28;20190;-87
2021/03/02 00:16:56;;;;;;;0.00;0.00;;;7.70;99.90;;;;;;5011486;28;20214;-86
2021/03/02 00:19:32;;;;;;;0.10;0.10;;;7.60;99.90;;;;;;5012213;28;20229;-86
2021/03/02 00:22:13;;;;;;;0.33;0.33;;;7.60;99.90;;;;;;5010813;28;20184;-86
2021/03/02 00:24:41;;;;;;;0.20;0.20;;;7.60;99.90;;;;;;5011336;28;20293;-86
2021/03/02 00:27:11;;;;;;;0.40;0.40;;;7.60;99.90;;;;;;5011886;28;20187;-86
2021/03/02 00:29:40;;;;;;;0.30;0.30;;;7.60;99.90;;;;;;5011061;28;20294;-86
2021/03/02 00:32:06;;;;;;;0.30;0.30;;;7.60;99.90;;;;;;5010984;28;20729;-86
2021/03/02 00:34:32;;;;;;;0.10;0.10;;;7.50;99.90;;;;;;5010590;28;20183;-86
2021/03/02 00:36:57;;;;;;;0.77;0.20;;;7.50;99.90;;;;;;5010527;28;20190;-86
2021/03/02 00:39:23;;;;;;;0.23;0.23;;;7.50;99.90;;;;;;5009855;28;20202;-86
2021/03/02 00:41:48;;;;;;;0.20;0.10;;;7.50;99.90;;;;;;5013015;28;20183;-83
2021/03/02 00:44:14;;;;;;;0.10;0.10;;;7.50;99.90;;;;;;5011934;28;20569;-86
2021/03/02 00:46:41;;;;;;;0.67;0.50;;;7.60;99.90;;;;;;5010723;28;20278;-86
2021/03/02 00:49:06;;;;;;;0.40;0.40;;;7.60;99.90;;;;;;5009968;28;20295;-86
2021/03/02 00:51:32;;;;;;;1.37;0.27;;;7.40;99.90;;;;;;5008396;28;20225;-86
2021/03/02 00:53:58;;;;;;;0.60;0.33;;;7.40;99.90;;;;;;5010386;28;20656;-86
2021/03/02 00:56:23;;;;;;;0.97;0.47;;;7.40;99.90;;;;;;5010589;28;20821;-85
2021/03/02 00:58:49;;;;;;;0.73;0.40;;;7.50;99.90;;;;;;5011564;28;20213;-86
2021/03/02 01:01:14;;;;;;;0.80;0.80;;;7.40;99.90;;;;;;5014922;28;20612;-86
2021/03/02 01:03:40;;;;;;;0.60;0.60;;;7.40;99.90;;;;;;5010564;28;20281;-85
2021/03/02 01:06:06;;;;;;;0.30;0.30;;;7.40;99.90;;;;;;5010274;28;20253;-86
2021/03/02 01:08:31;;;;;;;0.83;0.50;;;7.40;99.90;;;;;;5011727;28;20226;-86
2021/03/02 01:10:57;;;;;;;0.10;0.10;;;7.40;99.90;;;;;;5009837;28;20211;-84
2021/03/02 01:13:23;;;;;;;0.10;0.10;;;7.40;99.90;;;;;;5011706;28;20187;-84
2021/03/02 01:15:48;;;;;;;0.20;0.20;;;7.30;99.90;;;;;;5013545;28;20190;-84
2021/03/02 01:18:14;;;;;;;0.63;0.30;;;7.30;99.90;;;;;;5011313;28;20702;-83
2021/03/02 01:20:39;;;;;;;0.10;0.10;;;7.30;99.90;;;;;;5012288;28;20185;-83
2021/03/02 01:23:06;;;;;;;0.17;0.17;;;7.30;99.90;;;;;;5014420;28;20231;-86
2021/03/02 01:25:36;;;;;;;0.10;0.10;;;7.20;99.90;;;;;;5014644;28;20593;-86
2021/03/02 01:28:02;;;;;;;0.83;0.10;;;7.20;99.90;;;;;;5015497;28;20729;-83
2021/03/02 01:30:27;;;;;;;0.20;0.20;;;7.10;99.90;;;;;;5014039;28;20266;-83
2021/03/02 01:32:53;;;;;;;0.10;0.10;;;7.10;99.90;;;;;;5014589;28;20593;-84
2021/03/02 01:35:19;;;;;;;0.10;0.10;;;7.00;99.90;;;;;;5016059;28;20225;-84
2021/03/02 01:37:45;;;;;;;0.20;0.20;;;7.10;99.90;;;;;;5014612;28;20218;-83
2021/03/02 01:40:16;;;;;;;0.73;0.53;;;7.10;99.90;;;;;;5014507;28;20202;-83
2021/03/02 01:42:42;;;;;;;0.30;0.30;;;7.10;99.90;;;;;;5016164;28;20187;-85
2021/03/02 01:45:12;;;;;;;0.37;0.33;;;7.10;99.90;;;;;;5022330;28;20189;-84
2021/03/02 01:47:38;;;;;;;0.20;0.20;;;7.10;99.90;;;;;;5025255;28;20250;-83
2021/03/02 01:50:05;;;;;;;0.03;0.03;;;7.10;99.90;;;;;;5018466;28;20262;-83
2021/03/02 01:52:32;;;;;;;0.30;0.30;;;7.00;99.90;;;;;;5009157;28;20652;-83
2021/03/02 01:54:57;;;;;;;0.43;0.20;;;7.00;99.90;;;;;;5018844;28;20183;-83
2021/03/02 01:57:23;;;;;;;0.07;0.07;;;7.00;99.90;;;;;;5017956;28;20213;-82
2021/03/02 01:59:49;;;;;;;0.10;0.10;;;7.00;99.90;;;;;;5017443;28;20290;-82
2021/03/02 02:02:22;;;;;;;0.10;0.10;;;7.00;99.90;;;;;;5018617;28;20266;-83
2021/03/02 02:04:55;;;;;;;0.10;0.10;;;7.00;99.90;;;;;;5017914;28;20732;-83
2021/03/02 02:07:43;;;;;;;0.57;0.30;;;6.90;99.90;;;;;;5009872;28;20549;-83
2021/03/02 02:10:33;;;;;;;0.10;0.10;;;6.90;99.90;;;;;;5005838;28;20218;-82
2021/03/02 02:13:09;;;;;;;0.30;0.30;;;6.90;99.90;;;;;;5016377;28;20194;-84
2021/03/02 02:15:38;;;;;;;0.10;0.10;;;6.90;99.90;;;;;;5017590;28;20273;-83
2021/03/02 02:18:19;;;;;;;0.20;0.20;;;6.90;99.90;;;;;;5018498;28;20250;-83
2021/03/02 02:21:11;;;;;;;0.13;0.13;;;6.90;99.90;;;;;;5017673;28;20191;-83
2021/03/02 02:24:04;;;;;;;0.20;0.20;;;6.90;99.90;;;;;;5016801;28;20233;-83
2021/03/02 02:26:55;;;;;;;0.10;0.10;;;7.10;99.90;;;;;;5014315;28;20218;-84
2021/03/02 02:29:32;;;;;;;0.13;0.13;;;6.90;99.90;;;;;;5017146;28;20703;-83
2021/03/02 02:31:59;;;;;;;0.10;0.10;;;6.90;99.90;;;;;;5016032;28;20241;-84
2021/03/02 02:34:29;;;;;;;0.20;0.20;;;6.80;99.90;;;;;;5006409;28;20198;-83
2021/03/02 02:36:57;;;;;;;0.50;0.50;;;6.80;99.90;;;;;;5015037;28;20190;-84
2021/03/02 02:39:24;;;;;;;0.60;0.60;;;6.70;99.90;;;;;;5015917;28;20230;-83
2021/03/02 02:41:52;;;;;;;0.87;0.20;;;6.60;99.90;;;;;;5014169;28;20202;-82
2021/03/02 02:44:18;;;;;;;0.07;0.07;;;6.50;99.90;;;;;;5015183;28;20203;-84
2021/03/02 02:46:45;;;;;;;0.43;0.43;;;6.50;99.90;;;;;;5014905;28;20183;-84
2021/03/02 02:49:13;;;;;;;0.40;0.40;;;6.50;99.90;;;;;;5013836;28;20213;-82
2021/03/02 02:51:39;;;;;;;0.50;0.17;;;6.50;99.90;;;;;;5013632;28;20179;-83
2021/03/02 02:54:07;;;;;;;3.00;0.30;;;6.50;99.90;;;;;;5011281;28;20218;-83
2021/03/02 02:56:35;;;;;;;0.10;0.10;;;6.50;99.90;;;;;;5016821;28;20234;-83
2021/03/02 02:59:22;;;;;;;0.23;0.23;;;6.50;99.90;;;;;;5017059;28;20207;-83
2021/03/02 03:02:10;;;;;;;0.20;0.20;;;6.60;99.90;;;;;;5016117;28;20187;-85
2021/03/02 03:04:48;;;;;;;1.57;0.40;;;6.60;99.90;;;;;;5017265;28;20570;-83
2021/03/02 03:07:30;;;;;;;0.77;0.30;;;6.50;99.90;;;;;;5015002;28;20179;-84
2021/03/02 03:09:57;;;;;;;0.10;0.10;;;6.50;99.90;;;;;;5013498;28;20675;-83
2021/03/02 03:12:26;;;;;;;0.20;0.20;;;6.40;99.90;;;;;;5014541;28;20281;-82
2021/03/02 03:14:58;;;;;;;0.13;0.13;;;6.40;99.90;;;;;;5014221;28;20195;-83
2021/03/02 03:17:30;;;;;;;0.33;0.30;;;6.40;99.90;;;;;;5014425;28;20215;-82
2021/03/02 03:19:57;;;;;;;0.57;0.53;;;6.30;99.90;;;;;;5012193;28;20215;-82
2021/03/02 03:22:23;;;;;;;0.30;0.30;;;6.30;99.90;;;;;;5012411;28;20615;-83
2021/03/02 03:24:49;;;;;;;0.10;0.10;;;6.20;99.90;;;;;;5013172;28;20218;-83
2021/03/02 03:27:16;;;;;;;0.23;0.23;;;6.30;99.90;;;;;;5012272;28;20703;-83
2021/03/02 03:29:43;;;;;;;0.27;0.20;;;6.30;99.90;;;;;;5013468;28;20261;-83
2021/03/02 03:32:10;;;;;;;1.43;0.43;;;6.30;99.90;;;;;;5011573;28;20218;-83
2021/03/02 03:34:39;;;;;;;0.20;0.20;;;6.30;99.90;;;;;;5013604;28;20194;-83
2021/03/02 03:37:04;;;;;;;0.23;0.23;;;6.20;99.90;;;;;;5014056;28;20225;-83
2021/03/02 03:39:30;;;;;;;0.03;0.03;;;6.30;99.90;;;;;;5012236;28;20214;-83
2021/03/02 03:41:55;;;;;;;0.23;0.23;;;6.30;99.90;;;;;;5012157;28;20190;-84
2021/03/02 03:44:21;;;;;;;0.20;0.20;;;6.30;99.90;;;;;;5012119;28;20214;-83
2021/03/02 03:46:47;;;;;;;0.17;0.10;;;6.30;99.90;;;;;;5012407;28;20187;-83
2021/03/02 03:49:12;;;;;;;0.33;0.33;;;6.30;99.90;;;;;;5012647;28;20225;-83
2021/03/02 03:51:40;;;;;;;0.27;0.20;;;6.30;99.90;;;;;;5011429;28;20184;-84
2021/03/02 03:54:07;;;;;;;0.00;0.00;;;6.30;99.90;;;;;;5011747;28;20277;-82
2021/03/02 03:56:35;;;;;;;0.10;0.10;;;6.20;99.90;;;;;;5011762;28;20206;-84
2021/03/02 03:59:03;;;;;;;0.07;0.07;;;6.30;99.90;;;;;;5013194;28;20245;-83
2021/03/02 04:01:30;;;;;;;0.17;0.17;;;6.30;99.90;;;;;;5012953;28;20204;-84
2021/03/02 04:03:56;;;;;;;3.13;0.77;;;6.30;99.90;;;;;;5012288;28;20229;-83
2021/03/02 04:06:22;;;;;;;1.40;1.00;;;6.30;99.90;;;;;;5011712;28;20272;-83
2021/03/02 04:08:48;;;;;;;0.30;0.30;;;6.30;99.90;;;;;;5011786;28;20218;-83
2021/03/02 04:11:14;;;;;;;0.10;0.10;;;6.30;99.90;;;;;;5012500;28;20195;-83
2021/03/02 04:13:40;;;;;;;0.00;0.00;;;6.30;99.90;;;;;;5012465;28;20190;-82
2021/03/02 04:16:06;;;;;;;1.00;0.60;;;6.30;99.90;;;;;;5013180;28;20224;-84
2021/03/02 04:18:32;;;;;;;0.43;0.23;;;6.20;99.90;;;;;;5011008;28;20238;-83
2021/03/02 04:21:00;;;;;;;0.47;0.43;;;6.20;99.90;;;;;;5011067;28;20191;-83
2021/03/02 04:23:26;;;;;;;1.00;0.50;;;6.20;99.90;;;;;;5011783;28;20230;-83
2021/03/02 04:25:51;;;;;;;0.40;0.40;;;6.20;99.90;;;;;;5011318;28;20221;-82
2021/03/02 04:28:17;;;;;;;0.10;0.10;;;6.30;99.90;;;;;;5011292;28;20209;-83
2021/03/02 04:30:42;;;;;;;0.00;0.00;;;6.20;99.90;;;;;;5012160;28;20191;-84
2021/03/02 04:33:08;;;;;;;0.00;0.00;;;6.30;99.90;;;;;;5013037;28;20266;-84
2021/03/02 04:35:33;;;;;;;0.20;0.20;;;6.30;99.90;;;;;;5011564;28;20194;-84
2021/03/02 04:37:59;;;;;;;1.17;0.87;;;6.30;99.90;;;;;;5011678;28;20213;-84
2021/03/02 04:40:25;;;;;;;0.83;0.83;;;6.30;99.90;;;;;;5010950;28;20193;-83
2021/03/02 04:42:50;;;;;;;0.40;0.27;;;6.30;99.90;;;;;;5005250;28;20226;-83
2021/03/02 04:45:16;;;;;;;1.07;0.30;;;6.30;99.90;;;;;;5007320;28;20187;-84
2021/03/02 04:47:44;;;;;;;1.30;0.40;;;6.20;99.90;;;;;;5013086;28;20186;-83
2021/03/02 04:50:11;;;;;;;1.20;0.50;;;6.20;99.90;;;;;;5012438;28;20227;-85
2021/03/02 04:52:37;;;;;;;0.30;0.30;;;6.20;99.90;;;;;;5011702;28;20206;-84
2021/03/02 04:55:04;;;;;;;0.50;0.50;;;6.20;99.90;;;;;;5011723;28;20194;-83
2021/03/02 04:57:30;;;;;;;0.47;0.47;;;6.20;99.90;;;;;;5015351;28;20183;-86
2021/03/02 04:59:56;;;;;;;0.87;0.40;;;6.20;99.90;;;;;;5030525;28;20234;-83
2021/03/02 05:02:21;;;;;;;0.67;0.67;;;6.30;99.90;;;;;;5022402;28;20186;-83
2021/03/02 05:04:47;;;;;;;0.47;0.47;;;6.30;99.90;;;;;;5020860;28;20210;-83
2021/03/02 05:07:12;;;;;;;0.50;0.50;;;6.30;99.90;;;;;;5017143;28;20186;-82
2021/03/02 05:09:38;;;;;;;0.80;0.80;;;6.30;99.90;;;;;;5009315;28;20250;-83
2021/03/02 05:12:04;;;;;;;0.50;0.30;;;6.20;99.90;;;;;;5015093;28;20187;-83
2021/03/02 05:14:29;;;;;;;0.57;0.27;;;6.20;99.90;;;;;;5018648;28;20190;-84
2021/03/02 05:16:55;;;;;;;0.20;0.20;;;6.10;99.90;;;;;;5017907;28;20217;-83
2021/03/02 05:19:20;;;;;;;0.67;0.67;;;6.10;99.90;;;;;;5019357;28;20641;-83
2021/03/02 05:21:46;;;;;;;4.20;0.53;;;6.00;99.90;;;;;;5018935;28;20227;-83
2021/03/02 05:24:12;;;;;;;1.17;0.93;;;6.10;99.90;;;;;;5017941;28;20257;-82
2021/03/02 05:26:37;;;;;;;0.17;0.17;;;6.10;99.90;;;;;;5016794;28;20229;-84
2021/03/02 05:29:03;;;;;;;0.50;0.20;;;6.00;99.90;;;;;;5019230;28;20555;-84
2021/03/02 05:31:28;;;;;;;0.20;0.20;;;5.90;99.90;;;;;;5017048;28;20255;-84
2021/03/02 05:33:55;;;;;;;0.10;0.10;;;5.80;99.90;;;;;;5015367;28;20191;-83
2021/03/02 05:36:21;;;;;;;0.83;0.37;;;5.80;99.90;;;;;;5017318;28;20191;-83
2021/03/02 05:38:46;;;;;;;0.30;0.30;;;5.80;99.90;;;;;;5012983;28;20221;-83
2021/03/02 05:41:12;;;;;;;0.30;0.30;;;5.70;99.90;;;;;;5014839;28;20277;-84
2021/03/02 05:43:42;;;;;;;0.27;0.27;;;5.70;99.90;;;;;;5016158;28;20203;-86
2021/03/02 05:46:09;;;;;;;0.20;0.10;;;5.70;99.90;;;;;;5021803;28;20191;-84
2021/03/02 05:48:34;;;;;;;0.27;0.23;;;5.70;99.90;;;;;;5024963;28;20289;-85
2021/03/02 05:51:01;;;;;;;0.73;0.27;;;5.60;99.90;;;;;;5024248;28;20310;-84
2021/03/02 05:53:27;;;;;;;0.30;0.20;;;5.60;99.90;;;;;;5019462;28;20263;-83
2021/03/02 05:55:53;;;;;;;0.20;0.20;;;5.60;99.90;;;;;;5019277;28;20190;-84
2021/03/02 05:58:18;;;;;;;0.20;0.20;;;5.60;99.90;;;;;;5021092;28;20215;-83
2021/03/02 06:00:44;;;;;;;0.00;0.00;;;5.60;99.90;;;;;;5014018;28;20551;-84
2021/03/02 06:03:10;;;;;;;0.30;0.30;;;5.60;99.90;;;;;;5018347;28;20214;-82
2021/03/02 06:05:37;;;;;;;0.00;0.00;;;5.70;99.90;;;;;;5015265;28;20201;-83
2021/03/02 06:08:06;;;;;;;0.20;0.20;;;5.80;99.90;;;;;;5015316;28;20300;-83
2021/03/02 06:10:33;;;;;;;0.40;0.40;;;5.80;99.90;;;;;;5018185;28;20224;-82
2021/03/02 06:12:59;;;;;;;0.40;0.40;;;5.80;99.90;;;;;;5005130;28;20237;-82
2021/03/02 06:15:27;;;;;;;0.03;0.03;;;5.80;99.90;;;;;;5011839;28;20214;-82
2021/03/02 06:18:13;;;;;;;0.20;0.20;;;5.80;99.90;;;;;;5014019;28;20233;-84
2021/03/02 06:20:40;;;;;;;0.20;0.20;;;5.80;99.90;;;;;;5010548;28;20226;-83
2021/03/02 06:23:26;;;;;;;0.10;0.10;;;5.80;99.90;;;;;;5019739;28;20280;-83
2021/03/02 06:26:23;;;;;;;0.10;0.10;;;5.80;99.90;;;;;;5015071;28;20175;-84
2021/03/02 06:28:49;;;;;;;0.10;0.10;;;5.80;99.90;;;;;;5012620;28;20214;-82
2021/03/02 06:31:44;;;;;;;0.20;0.10;;;5.90;99.90;;;;;;5018239;28;20198;-83
2021/03/02 06:34:21;;;;;;;0.27;0.27;;;5.90;99.90;;;;;;5018233;28;20187;-83
2021/03/02 06:36:52;;;;;;;0.00;0.00;;;5.90;99.90;;;;;;5016761;28;20190;-83
2021/03/02 06:39:23;;;;;;;0.03;0.03;;;6.00;99.90;;;;;;5003409;28;20202;-82
2021/03/02 06:41:50;;;;;;;0.40;0.40;;;6.00;99.90;;;;;;5012216;28;20180;-82
2021/03/02 06:44:16;;;;;;;0.37;0.37;;;5.80;99.90;;;;;;5014570;28;20205;-82
2021/03/02 06:46:42;;;;;;;0.17;0.17;;;5.80;99.90;;;;;;5010703;28;20190;-83
2021/03/02 06:49:08;;;;;;;0.20;0.20;;;5.70;99.90;;;;;;5013634;28;20204;-86
2021/03/02 06:51:39;;;;;;;0.00;0.00;;;5.70;99.90;;;;;;5013447;28;20209;-81
2021/03/02 06:54:15;;;;;;;0.43;0.43;;;5.70;99.90;;;;;;5008414;28;20191;-82
2021/03/02 06:56:41;;;;;;;0.27;0.27;;;5.90;99.90;;;;;;5016204;28;20178;-83
2021/03/02 06:59:19;;;;;;;0.10;0.10;;;6.10;99.90;;;;;;5017186;28;20226;-84
2021/03/02 07:01:47;;;;;;;0.30;0.30;;;6.20;99.90;;;;;;5012768;28;20178;-83
2021/03/02 07:04:26;;;;;;;0.83;0.60;;;6.40;99.90;;;;;;5011812;28;20482;-82
2021/03/02 07:06:57;;;;;;;0.30;0.30;;;6.50;99.90;;;;;;5011034;28;20619;-82
2021/03/02 07:09:24;;;;;;;0.10;0.10;;;6.50;99.90;;;;;;5021060;28;20191;-86
2021/03/02 07:11:50;;;;;;;0.17;0.17;;;6.60;99.90;;;;;;5012402;28;20191;-82
2021/03/02 07:14:16;;;;;;;0.30;0.30;;;6.70;99.90;;;;;;5010811;28;20209;-83
2021/03/02 07:16:46;;;;;;;0.20;0.20;;;6.80;99.90;;;;;;5009349;28;20184;-86
2021/03/02 07:19:17;;;;;;;0.20;0.20;;;6.80;99.90;;;;;;5008896;28;20217;-82
2021/03/02 07:21:45;;;;;;;0.20;0.20;;;7.00;99.90;;;;;;5007532;28;20573;-84
2021/03/02 07:24:13;;;;;;;0.33;0.33;;;7.10;99.90;;;;;;5001795;28;20211;-82
2021/03/02 07:26:46;;;;;;;0.47;0.30;;;7.20;99.90;;;;;;5006444;28;20629;-83
2021/03/02 07:29:13;;;;;;;0.23;0.23;;;7.40;99.90;;;;;;5014256;28;20290;-82
2021/03/02 07:31:40;;;;;;;0.40;0.40;;;7.60;99.90;;;;;;5011276;28;20654;-83
2021/03/02 07:34:07;;;;;;;0.40;0.40;;;7.60;99.90;;;;;;5013692;28;20194;-83
2021/03/02 07:36:42;;;;;;;0.83;0.83;;;7.60;99.90;;;;;;5010282;28;20662;-83
2021/03/02 07:39:19;;;;;;;3.20;0.80;;;7.60;99.90;;;;;;5013426;28;20238;-83
2021/03/02 07:41:46;;;;;;;0.87;0.40;;;7.70;99.90;;;;;;5016432;28;20431;-82
2021/03/02 07:44:12;;;;;;;1.37;0.70;;;7.90;99.90;;;;;;5013060;28;20214;-83
2021/03/02 07:46:39;;;;;;;0.30;0.30;;;8.10;99.90;;;;;;5023588;28;20673;-83
2021/03/02 07:49:23;;;;;;;0.27;0.27;;;8.10;99.90;;;;;;5018897;28;20222;-82
2021/03/02 07:52:01;;;;;;;0.00;0.00;;;8.20;99.90;;;;;;5024398;28;20194;-83
2021/03/02 07:54:29;;;;;;;0.37;0.23;;;8.50;99.90;;;;;;5021413;28;20170;-83
2021/03/02 07:57:16;;;;;;;0.57;0.50;;;8.40;99.90;;;;;;5017072;28;20175;-83
2021/03/02 07:59:44;;;;;;;0.70;0.70;;;8.60;99.90;;;;;;5016880;28;20221;-83
2021/03/02 08:02:14;;;;;;;0.00;0.00;;;8.40;99.90;;;;;;5013785;28;20195;-83
2021/03/02 08:04:40;;;;;;;3.70;0.70;;;8.60;99.90;;;;;;5005032;28;20692;-82
2021/03/02 08:07:26;;;;;;;1.80;1.70;;;8.30;99.90;;;;;;5006402;28;20179;-83
2021/03/02 08:09:58;;;;;;;0.87;0.60;;;8.20;99.90;;;;;;5010838;28;20558;-84
2021/03/02 08:12:37;;;;;;;0.50;0.40;;;8.50;99.90;;;;;;5013787;28;20187;-84
2021/03/02 08:15:32;;;;;;;1.37;0.73;;;8.80;99.90;;;;;;5016361;28;20183;-83
2021/03/02 08:18:35;;;;;;;1.10;0.70;;;9.00;99.90;;;;;;5007666;28;20216;-83
2021/03/02 08:21:20;;;;;;;0.93;0.57;;;8.90;99.90;;;;;;5016030;28;20188;-83
2021/03/02 08:23:57;;;;;;;0.97;0.90;;;9.20;99.90;;;;;;5012562;28;20254;-84
2021/03/02 08:26:32;;;;;;;1.20;0.83;;;9.30;99.90;;;;;;5016279;28;20543;-83
2021/03/02 08:29:15;;;;;;;0.50;0.50;;;9.30;99.90;;;;;;5014955;28;20205;-85
2021/03/02 08:31:43;;;;;;;0.90;0.90;;;9.70;99.90;;;;;;5015154;28;20181;-86
2021/03/02 08:34:10;;;;;;;1.40;1.30;;;9.30;99.90;;;;;;5017342;28;20607;-86
2021/03/02 08:36:37;;;;;;;0.63;0.57;;;9.30;99.90;;;;;;5015268;28;20528;-83
2021/03/02 08:39:14;;;;;;;0.57;0.50;;;9.40;99.90;;;;;;5011267;28;20326;-85
2021/03/02 08:41:42;;;;;;;1.00;0.80;;;9.20;99.90;;;;;;5012233;28;20278;-84
2021/03/02 08:44:20;;;;;;;0.10;0.10;;;9.40;99.90;;;;;;5016831;28;20277;-84
2021/03/02 08:46:55;;;;;;;0.10;0.10;;;9.90;99.90;;;;;;5009422;28;20181;-83
2021/03/02 08:49:22;;;;;;;0.57;0.57;;;9.70;99.90;;;;;;5013299;28;20207;-84
2021/03/02 08:51:48;;;;;;;0.87;0.87;;;9.90;99.90;;;;;;5011549;28;20247;-83
2021/03/02 08:54:15;;;;;;;1.43;0.50;;;9.80;99.90;;;;;;5012175;28;20187;-83
2021/03/02 08:56:40;;;;;;;0.43;0.43;;;9.90;99.90;;;;;;5016075;28;20205;-86
2021/03/02 08:59:09;;;;;;;1.37;1.27;;;9.90;99.90;;;;;;5012403;28;20201;-84
2021/03/02 09:01:42;;;;;;;2.53;0.40;;;10.20;99.90;;;;;;5010742;28;20672;-83
2021/03/02 09:04:18;;;;;;;0.97;0.73;;;9.70;99.90;;;;;;5011381;28;20678;-81
2021/03/02 09:06:48;;;;;;;0.53;0.50;;;10.10;99.90;;;;;;5008006;28;20244;-81
2021/03/02 09:09:15;;;;;;;0.97;0.97;;;9.90;99.90;;;;;;5011629;28;20825;-80
2021/03/02 09:11:46;;;;;;;1.23;0.57;;;9.90;99.90;;;;;;5007210;28;20187;-81
2021/03/02 09:14:14;;;;;;;0.80;0.80;;;9.90;99.90;;;;;;5014165;28;20212;-81
2021/03/02 09:16:46;;;;;;;2.90;1.03;;;10.00;99.90;;;;;;5014714;28;20656;-79
2021/03/02 09:19:14;;;;;;;0.63;0.53;;;10.10;99.90;;;;;;5014033;28;20226;-80
2021/03/02 09:21:49;;;;;;;1.33;0.47;;;10.30;99.90;;;;;;5013241;28;20273;-79
2021/03/02 09:24:17;;;;;;;1.27;0.40;;;10.50;99.90;;;;;;5008622;28;20202;-80
2021/03/02 09:26:50;;;;;;;0.30;0.30;;;10.60;99.90;;;;;;5009662;28;20207;-80
2021/03/02 09:29:16;;;;;;;0.30;0.30;;;10.20;99.90;;;;;;5010798;28;20281;-80
2021/03/02 09:31:43;;;;;;;1.00;0.53;;;10.70;99.90;;;;;;5008774;28;20202;-80
2021/03/02 09:34:08;;;;;;;1.50;0.70;;;10.80;99.90;;;;;;5001127;28;20190;-80
2021/03/02 09:36:34;;;;;;;0.33;0.33;;;10.50;99.90;;;;;;5011411;28;20568;-80
2021/03/02 09:39:16;;;;;;;0.20;0.20;;;10.50;99.90;;;;;;5012823;28;21181;-80
2021/03/02 09:41:41;;;;;;;1.27;1.17;;;10.40;99.90;;;;;;5006887;28;20253;-79
2021/03/02 09:44:21;;;;;;;0.30;0.30;;;10.90;99.90;;;;;;5008554;28;20303;-80
2021/03/02 09:46:47;;;;;;;0.50;0.37;;;11.20;99.90;;;;;;5011094;28;20175;-79
2021/03/02 09:49:41;;;;;;;0.37;0.37;;;11.60;99.90;;;;;;5012011;28;20207;-79
2021/03/02 09:52:26;;;;;;;0.20;0.20;;;11.80;99.90;;;;;;5011119;28;20207;-80
2021/03/02 09:55:10;;;;;;;0.97;0.90;;;11.90;99.90;;;;;;5006890;28;20197;-79
2021/03/02 09:57:51;;;;;;;0.63;0.63;;;11.90;99.90;;;;;;5004735;28;20187;-79
2021/03/02 10:00:27;;;;;;;0.50;0.50;;;12.00;99.90;;;;;;5025345;28;20190;-79
2021/03/02 10:02:58;;;;;;;1.90;0.50;;;12.30;99.90;;;;;;5012233;28;20237;-80
2021/03/02 10:05:32;;;;;;;0.40;0.37;;;12.60;99.90;;;;;;5015911;28;20226;-80
2021/03/02 10:07:59;;;;;;;0.60;0.37;;;12.90;99.90;;;;;;5014159;28;20289;-80
2021/03/02 10:10:38;;;;;;;1.00;1.00;;;12.70;99.90;;;;;;5013261;28;20548;-79
2021/03/02 10:13:05;;;;;;;0.30;0.23;;;12.90;99.90;;;;;;5012913;28;20185;-80
2021/03/02 10:15:32;;;;;;;0.70;0.70;;;13.10;99.90;;;;;;5015084;28;20190;-80
2021/03/02 10:17:59;;;;;;;1.13;0.50;;;12.90;99.90;;;;;;5012035;28;20759;-81
2021/03/02 10:20:25;;;;;;;0.70;0.70;;;12.90;99.90;;;;;;5009721;28;20191;-82
2021/03/02 10:23:04;;;;;;;1.70;1.00;;;12.80;99.90;;;;;;5012619;28;20469;-80
2021/03/02 10:25:40;;;;;;;1.77;0.83;;;12.60;99.90;;;;;;5016991;28;20213;-79
2021/03/02 10:28:06;;;;;;;1.00;0.70;;;12.50;99.90;;;;;;5012471;28;20636;-80
2021/03/02 10:30:31;;;;;;;0.80;0.70;;;12.90;99.90;;;;;;5010444;28;20179;-80
2021/03/02 10:32:57;;;;;;;0.43;0.43;;;13.00;99.90;;;;;;5011279;28;20183;-79
2021/03/02 10:35:22;;;;;;;0.43;0.37;;;13.00;99.90;;;;;;5008635;28;20177;-79
2021/03/02 10:37:48;;;;;;;0.40;0.40;;;13.40;99.90;;;;;;5012434;28;20710;-81
2021/03/02 10:40:14;;;;;;;1.20;0.70;;;13.30;99.90;;;;;;5015057;28;20672;-81
2021/03/02 10:42:40;;;;;;;1.87;1.37;;;13.00;99.90;;;;;;5017705;28;20558;-80
2021/03/02 10:45:06;;;;;;;0.60;0.60;;;12.40;99.90;;;;;;5016630;28;20211;-82
2021/03/02 10:47:32;;;;;;;1.00;0.60;;;12.40;99.90;;;;;;5011468;28;20656;-81
2021/03/02 10:49:57;;;;;;;0.90;0.77;;;12.50;99.90;;;;;;5005151;28;20205;-81
2021/03/02 10:52:24;;;;;;;0.87;0.43;;;12.90;99.90;;;;;;5013944;28;20293;-81
2021/03/02 10:54:49;;;;;;;1.13;0.90;;;13.40;99.90;;;;;;5013984;28;20566;-81
2021/03/02 10:57:15;;;;;;;0.73;0.73;;;13.10;99.90;;;;;;5012706;28;20196;-81
2021/03/02 10:59:40;;;;;;;1.33;1.10;;;13.20;99.90;;;;;;5020666;28;20232;-81
2021/03/02 11:02:07;;;;;;;0.77;0.77;;;13.50;99.90;;;;;;5012213;28;20175;-80
2021/03/02 11:04:32;;;;;;;0.93;0.80;;;13.50;99.90;;;;;;5008901;28;20222;-81
2021/03/02 11:06:58;;;;;;;0.93;0.93;;;13.70;99.90;;;;;;5008253;28;20188;-81
2021/03/02 11:09:25;;;;;;;2.23;0.70;;;13.90;99.90;;;;;;5006272;28;20199;-81
2021/03/02 11:11:51;;;;;;;0.40;0.40;;;14.00;99.90;;;;;;5014831;28;20209;-81
2021/03/02 11:14:17;;;;;;;3.00;1.03;;;14.10;99.90;;;;;;5011583;28;20187;-81
2021/03/02 11:16:43;;;;;;;2.27;0.93;;;14.20;99.90;;;;;;5012791;28;20188;-82
2021/03/02 11:19:08;;;;;;;0.53;0.53;;;13.90;99.90;;;;;;5011165;28;20292;-81
2021/03/02 11:21:34;;;;;;;0.67;0.33;;;14.00;99.90;;;;;;5012258;28;20638;-81
2021/03/02 11:24:00;;;;;;;0.60;0.40;;;14.20;99.90;;;;;;5007908;28;20211;-82
2021/03/02 11:26:25;;;;;;;1.07;0.87;;;14.00;99.90;;;;;;5020778;28;20179;-82
2021/03/02 11:28:51;;;;;;;0.60;0.60;;;14.20;99.90;;;;;;5026010;28;20201;-82
2021/03/02 11:31:17;;;;;;;1.37;1.27;;;14.40;99.90;;;;;;5022179;28;20197;-82
2021/03/02 11:33:43;;;;;;;0.50;0.50;;;14.50;99.90;;;;;;5022756;28;20195;-82
2021/03/02 11:36:09;;;;;;;2.33;0.50;;;14.60;99.90;;;;;;5021294;28;20180;-82
2021/03/02 11:38:34;;;;;;;0.30;0.30;;;14.50;99.90;;;;;;5020805;28;20221;-82
2021/03/02 11:41:00;;;;;;;1.10;0.83;;;14.70;99.90;;;;;;5020888;28;20760;-82
2021/03/02 11:43:27;;;;;;;4.30;1.10;;;14.30;99.90;;;;;;5018511;28;20584;-82
2021/03/02 11:45:53;;;;;;;1.30;0.67;;;14.00;99.90;;;;;;5020974;28;20175;-82
2021/03/02 11:48:19;;;;;;;2.03;0.70;;;14.10;99.90;;;;;;5020619;28;20220;-82
2021/03/02 11:50:44;;;;;;;0.67;0.63;;;14.30;99.90;;;;;;5013755;28;20563;-82
2021/03/02 11:53:10;;;;;;;0.13;0.13;;;14.40;99.90;;;;;;5020135;28;20183;-82
2021/03/02 11:55:35;;;;;;;0.53;0.53;;;14.40;99.90;;;;;;5020092;28;20198;-81
2021/03/02 11:58:01;;;;;;;1.60;0.50;;;14.10;99.90;;;;;;5016351;28;20267;-82
2021/03/02 12:00:26;;;;;;;0.40;0.40;;;14.40;99.90;;;;;;5013586;28;20187;-82
2021/03/02 12:02:52;;;;;;;0.80;0.50;;;14.50;99.90;;;;;;5012863;28;20211;-81
2021/03/02 12:05:20;;;;;;;1.47;0.60;;;14.40;99.90;;;;;;5023117;28;20202;-84
2021/03/02 12:07:46;;;;;;;0.30;0.30;;;14.40;99.90;;;;;;5007074;28;20687;-82
2021/03/02 12:10:14;;;;;;;0.30;0.30;;;14.50;99.90;;;;;;5013530;28;20728;-81
2021/03/02 12:12:40;;;;;;;0.93;0.50;;;14.70;99.90;;;;;;4996592;28;20180;-80
2021/03/02 12:15:07;;;;;;;0.83;0.73;;;14.40;99.90;;;;;;5013008;28;20666;-81
2021/03/02 12:17:34;;;;;;;0.40;0.40;;;14.30;99.90;;;;;;5009173;28;20196;-81
2021/03/02 12:19:59;;;;;;;0.23;0.23;;;14.60;99.90;;;;;;5005679;28;20215;-79
2021/03/02 12:22:25;;;;;;;0.73;0.57;;;14.60;99.90;;;;;;5012651;28;20180;-81
2021/03/02 12:24:51;;;;;;;4.27;2.80;;;14.50;99.90;;;;;;5014563;28;20204;-81
2021/03/02 12:27:16;;;;;;;4.30;1.33;;;14.00;99.90;;;;;;5014047;28;20184;-80
2021/03/02 12:29:43;;;;;;;1.13;1.13;;;13.60;99.90;;;;;;5010482;28;20206;-81
2021/03/02 12:32:09;;;;;;;1.03;1.00;;;13.70;99.90;;;;;;5017884;28;20195;-82
2021/03/02 12:34:35;;;;;;;0.60;0.60;;;13.90;99.90;;;;;;5009915;28;20660;-80
2021/03/02 12:37:00;;;;;;;1.57;1.23;;;14.30;99.90;;;;;;4988538;28;20229;-80
2021/03/02 12:39:26;;;;;;;1.07;0.60;;;14.10;99.90;;;;;;4993653;28;20294;-80
2021/03/02 12:41:51;;;;;;;0.60;0.60;;;13.80;99.90;;;;;;5004087;28;20187;-80
2021/03/02 12:44:17;;;;;;;2.57;1.60;;;13.80;99.90;;;;;;5005106;28;20617;-79
2021/03/02 12:46:43;;;;;;;0.43;0.30;;;13.80;99.90;;;;;;5008359;28;20187;-80
2021/03/02 12:49:08;;;;;;;1.67;1.10;;;14.00;99.90;;;;;;5003203;28;20204;-80
2021/03/02 12:51:34;;;;;;;1.20;1.10;;;14.40;99.90;;;;;;5002322;28;20179;-80
2021/03/02 12:54:00;;;;;;;0.47;0.30;;;14.70;99.90;;;;;;5006618;28;20187;-80
2021/03/02 12:56:27;;;;;;;0.40;0.40;;;15.00;99.90;;;;;;5008610;28;20843;-81
2021/03/02 12:58:52;;;;;;;0.63;0.63;;;15.10;99.90;;;;;;5008781;28;20204;-81
2021/03/02 13:01:18;;;;;;;1.13;0.60;;;15.30;99.90;;;;;;5006276;28;20281;-80
2021/03/02 13:03:44;;;;;;;0.80;0.80;;;15.20;99.90;;;;;;5007562;28;20207;-79